createdAt,value
2023-05-03T00:00:17.289Z,12.70
2023-05-03T00:02:47.142Z,12.60
2023-05-03T00:05:15.634Z,12.60
2023-05-03T00:07:45.287Z,12.50
2023-05-03T00:10:16.088Z,12.40
2023-05-03T00:12:47.059Z,12.50
2023-05-03T00:15:15.475Z,12.40
2023-05-03T00:17:45.467Z,12.40
2023-05-03T00:20:14.064Z,12.30
2023-05-03T00:22:43.070Z,12.30
2023-05-03T00:25:12.047Z,12.30
2023-05-03T00:27:40.103Z,12.30
2023-05-03T00:30:13.486Z,12.30
2023-05-03T00:32:41.622Z,12.30
2023-05-03T00:35:10.098Z,12.30
2023-05-03T00:37:38.604Z,12.40
2023-05-03T00:40:09.055Z,12.40
2023-05-03T00:42:41.410Z,12.50
2023-05-03T00:45:11.527Z,12.40
2023-05-03T00:47:41.270Z,12.50
2023-05-03T00:50:12.927Z,12.40
2023-05-03T00:52:42.057Z,12.20
2023-05-03T00:55:12.090Z,12.20
2023-05-03T00:57:40.714Z,12.20
2023-05-03T01:00:17.320Z,12.10
2023-05-03T01:02:45.466Z,12.10
2023-05-03T01:05:14.063Z,12.10
2023-05-03T01:07:49.075Z,12.10
2023-05-03T01:10:29.357Z,12.00
2023-05-03T01:13:09.629Z,12.00
2023-05-03T01:15:49.103Z,12.00
2023-05-03T01:18:22.677Z,12.00
2023-05-03T01:20:53.091Z,11.90
2023-05-03T01:23:31.354Z,11.70
2023-05-03T01:26:02.084Z,11.70
2023-05-03T01:28:31.111Z,11.60
2023-05-03T01:31:00.786Z,11.70
2023-05-03T01:33:42.109Z,11.70
2023-05-03T01:36:15.095Z,11.70
2023-05-03T01:38:44.354Z,11.60
2023-05-03T01:41:14.954Z,11.30
2023-05-03T01:43:45.347Z,11.20
2023-05-03T01:46:14.407Z,11.30
2023-05-03T01:48:46.108Z,11.20
2023-05-03T01:51:14.110Z,11.20
2023-05-03T01:53:42.885Z,11.20
2023-05-03T01:56:11.188Z,11.20
2023-05-03T01:58:40.695Z,11.00
2023-05-03T02:01:09.023Z,10.90
2023-05-03T02:03:38.123Z,10.90
2023-05-03T02:06:06.483Z,10.80
2023-05-03T02:08:34.585Z,10.70
2023-05-03T02:11:03.128Z,10.80
2023-05-03T02:13:33.611Z,10.80
2023-05-03T02:16:06.207Z,10.80
2023-05-03T02:18:36.102Z,10.90
2023-05-03T02:21:04.838Z,11.00
2023-05-03T02:23:34.122Z,10.90
2023-05-03T02:26:02.330Z,10.80
2023-05-03T02:28:30.372Z,11.00
2023-05-03T02:31:00.178Z,10.90
2023-05-03T02:33:29.738Z,11.00
2023-05-03T02:35:57.842Z,11.10
2023-05-03T02:38:29.734Z,11.10
2023-05-03T02:41:00.745Z,11.00
2023-05-03T02:43:29.054Z,10.70
2023-05-03T02:46:00.016Z,10.70
2023-05-03T02:48:30.128Z,10.50
2023-05-03T02:51:01.402Z,10.60
2023-05-03T02:53:29.782Z,10.70
2023-05-03T02:56:01.752Z,10.70
2023-05-03T02:58:34.136Z,10.80
2023-05-03T03:01:04.064Z,10.80
2023-05-03T03:03:34.444Z,10.80
2023-05-03T03:06:02.689Z,10.90
2023-05-03T03:08:31.072Z,10.90
2023-05-03T03:11:05.144Z,10.90
2023-05-03T03:13:35.965Z,10.80
2023-05-03T03:16:04.107Z,10.70
2023-05-03T03:18:33.190Z,10.70
2023-05-03T03:21:03.559Z,10.70
2023-05-03T03:23:36.445Z,10.70
2023-05-03T03:26:04.713Z,10.60
2023-05-03T03:28:33.090Z,10.70
2023-05-03T03:31:07.415Z,10.70
2023-05-03T03:33:36.817Z,10.70
2023-05-03T03:36:13.256Z,10.90
2023-05-03T03:38:44.555Z,10.80
2023-05-03T03:41:13.298Z,10.80
2023-05-03T03:43:41.856Z,10.50
2023-05-03T03:46:36.223Z,10.40
2023-05-03T03:49:04.854Z,10.40
2023-05-03T03:51:34.343Z,10.40
2023-05-03T03:54:06.849Z,10.50
2023-05-03T03:56:39.179Z,10.60
2023-05-03T03:59:10.212Z,10.60
2023-05-03T04:01:43.183Z,10.60
2023-05-03T04:04:12.446Z,10.50
2023-05-03T04:06:43.239Z,10.30
2023-05-03T04:09:14.723Z,10.40
2023-05-03T04:11:43.176Z,10.40
2023-05-03T04:14:11.272Z,10.50
2023-05-03T04:16:40.619Z,10.50
2023-05-03T04:19:09.020Z,10.50
2023-05-03T04:21:42.188Z,10.30
2023-05-03T04:24:11.430Z,10.20
2023-05-03T04:26:40.462Z,10.30
2023-05-03T04:29:18.719Z,10.00
2023-05-03T04:31:47.578Z,10.10
2023-05-03T04:34:17.853Z,10.20
2023-05-03T04:36:53.790Z,10.10
2023-05-03T04:39:24.188Z,10.20
2023-05-03T04:41:54.232Z,10.20
2023-05-03T04:44:22.682Z,10.30
2023-05-03T04:46:51.906Z,10.40
2023-05-03T04:49:21.783Z,10.50
2023-05-03T04:51:51.013Z,10.50
2023-05-03T04:54:21.452Z,10.50
2023-05-03T04:56:50.222Z,10.50
2023-05-03T04:59:19.860Z,10.60
2023-05-03T05:01:52.260Z,10.30
2023-05-03T05:04:20.409Z,10.20
2023-05-03T05:06:53.359Z,10.20
2023-05-03T05:09:31.214Z,10.30
2023-05-03T05:12:04.240Z,10.40
2023-05-03T05:14:46.758Z,10.50
2023-05-03T05:17:14.837Z,10.50
2023-05-03T05:19:43.519Z,10.50
2023-05-03T05:22:13.200Z,10.40
2023-05-03T05:24:50.859Z,10.40
2023-05-03T05:27:21.288Z,10.50
2023-05-03T05:29:50.216Z,10.60
2023-05-03T05:32:18.715Z,10.80
2023-05-03T05:34:52.942Z,10.80
2023-05-03T05:37:27.162Z,10.80
2023-05-03T05:40:04.675Z,10.70
2023-05-03T05:42:40.074Z,10.70
2023-05-03T05:45:09.562Z,10.70
2023-05-03T05:47:43.070Z,10.70
2023-05-03T05:50:18.163Z,10.80
2023-05-03T05:52:57.272Z,10.80
2023-05-03T05:55:30.399Z,10.70
2023-05-03T05:58:04.325Z,10.70
2023-05-03T06:00:39.723Z,10.90
2023-05-03T06:03:08.262Z,11.00
2023-05-03T06:05:36.561Z,11.00
2023-05-03T06:08:05.346Z,11.10
2023-05-03T06:10:36.219Z,11.10
2023-05-03T06:13:04.954Z,11.20
2023-05-03T06:15:35.045Z,11.30
2023-05-03T06:18:04.429Z,11.40
2023-05-03T06:20:34.234Z,11.30
2023-05-03T06:23:03.482Z,11.40
2023-05-03T06:25:31.609Z,11.40
2023-05-03T06:28:02.816Z,11.40
2023-05-03T06:30:34.263Z,11.50
2023-05-03T06:33:08.241Z,11.50
2023-05-03T06:35:38.074Z,11.60
2023-05-03T06:38:06.150Z,11.50
2023-05-03T06:40:37.117Z,11.30
2023-05-03T06:43:08.781Z,11.40
2023-05-03T06:45:44.539Z,11.30
2023-05-03T06:48:14.395Z,11.20
2023-05-03T06:50:43.250Z,11.30
2023-05-03T06:53:14.140Z,11.30
2023-05-03T06:55:45.258Z,11.10
2023-05-03T06:58:15.232Z,11.30
2023-05-03T07:00:43.338Z,11.40
2023-05-03T07:03:15.050Z,11.60
2023-05-03T07:05:44.289Z,11.60
2023-05-03T07:08:12.602Z,11.60
2023-05-03T07:10:43.371Z,11.60
2023-05-03T07:13:11.431Z,11.30
2023-05-03T07:15:40.889Z,11.20
2023-05-03T07:18:10.320Z,11.50
2023-05-03T07:20:38.614Z,11.40
2023-05-03T07:23:07.288Z,11.50
2023-05-03T07:25:39.413Z,11.60
2023-05-03T07:28:08.392Z,11.70
2023-05-03T07:30:36.644Z,11.70
2023-05-03T07:33:06.429Z,11.80
2023-05-03T07:35:34.768Z,11.70
2023-05-03T07:38:02.975Z,11.60
2023-05-03T07:40:33.358Z,11.30
2023-05-03T07:43:01.698Z,11.40
2023-05-03T07:45:29.791Z,11.50
2023-05-03T07:48:01.552Z,11.70
2023-05-03T07:50:35.362Z,11.70
2023-05-03T07:53:07.060Z,11.80
2023-05-03T07:55:36.579Z,11.80
2023-05-03T07:58:04.766Z,11.80
2023-05-03T08:00:35.863Z,11.80
2023-05-03T08:03:06.192Z,11.80
2023-05-03T08:05:36.785Z,11.80
2023-05-03T08:08:05.650Z,12.00
2023-05-03T08:10:37.967Z,12.00
2023-05-03T08:13:07.096Z,11.80
2023-05-03T08:15:35.682Z,12.00
2023-05-03T08:18:03.957Z,12.00
2023-05-03T08:20:32.197Z,12.00
2023-05-03T08:23:01.676Z,12.20
2023-05-03T08:25:33.432Z,12.30
2023-05-03T08:28:01.806Z,12.40
2023-05-03T08:30:32.850Z,12.50
2023-05-03T08:33:01.114Z,12.50
2023-05-03T08:35:29.266Z,12.40
2023-05-03T08:37:57.405Z,12.30
2023-05-03T08:40:32.301Z,12.40
2023-05-03T08:43:08.037Z,12.40
2023-05-03T08:45:37.405Z,12.60
2023-05-03T08:48:09.060Z,12.70
2023-05-03T08:50:42.214Z,12.50
2023-05-03T08:53:10.685Z,12.50
2023-05-03T08:55:44.589Z,12.30
2023-05-03T08:58:13.609Z,12.30
2023-05-03T09:00:45.066Z,12.40
2023-05-03T09:03:14.185Z,12.50
2023-05-03T09:05:44.411Z,12.50
2023-05-03T09:08:14.712Z,12.40
2023-05-03T09:10:45.302Z,12.50
2023-05-03T09:13:13.390Z,12.40
2023-05-03T09:15:41.536Z,12.30
2023-05-03T09:18:15.775Z,12.20
2023-05-03T09:20:51.275Z,12.30
2023-05-03T09:23:20.889Z,12.40
2023-05-03T09:25:51.819Z,12.30
2023-05-03T09:28:20.904Z,12.30
2023-05-03T09:30:50.371Z,12.30
2023-05-03T09:33:22.355Z,12.40
2023-05-03T09:36:01.179Z,12.60
2023-05-03T09:38:30.633Z,12.70
2023-05-03T09:41:01.396Z,12.70
2023-05-03T09:43:34.827Z,12.60
2023-05-03T09:46:12.898Z,12.70
2023-05-03T09:48:42.052Z,12.90
2023-05-03T09:51:11.408Z,13.20
2023-05-03T09:53:41.497Z,13.30
2023-05-03T09:56:13.673Z,13.40
2023-05-03T09:58:43.721Z,13.40
2023-05-03T10:01:12.172Z,13.30
2023-05-03T10:03:42.410Z,13.40
2023-05-03T10:06:23.647Z,13.10
2023-05-03T10:08:58.022Z,13.00
2023-05-03T10:11:28.369Z,13.20
2023-05-03T10:13:57.126Z,13.40
2023-05-03T10:16:30.344Z,13.30
2023-05-03T10:19:05.595Z,13.20
2023-05-03T10:21:44.354Z,13.10
2023-05-03T10:24:14.430Z,13.10
2023-05-03T10:26:46.083Z,13.20
2023-05-03T10:29:54.018Z,13.40
2023-05-03T10:32:40.386Z,13.50
2023-05-03T10:35:11.381Z,13.60
2023-05-03T10:37:43.354Z,13.70
2023-05-03T10:40:13.761Z,13.60
2023-05-03T10:42:48.328Z,13.30
2023-05-03T10:45:27.554Z,13.40
2023-05-03T10:48:20.770Z,13.50
2023-05-03T10:50:51.921Z,13.50
2023-05-03T10:53:44.910Z,13.40
2023-05-03T10:56:15.741Z,13.70
2023-05-03T10:58:46.582Z,13.80
2023-05-03T11:01:18.795Z,13.90
2023-05-03T11:04:00.406Z,13.50
2023-05-03T11:06:31.469Z,13.70
2023-05-03T11:09:00.495Z,13.70
2023-05-03T11:11:28.738Z,13.80
2023-05-03T11:13:58.629Z,14.10
2023-05-03T11:16:31.170Z,14.10
2023-05-03T11:19:00.348Z,14.00
2023-05-03T11:21:29.391Z,14.20
2023-05-03T11:24:03.387Z,14.20
2023-05-03T11:26:37.549Z,14.10
2023-05-03T11:29:14.016Z,14.30
2023-05-03T11:31:44.129Z,14.50
2023-05-03T11:34:13.370Z,14.60
2023-05-03T11:36:42.417Z,15.00
2023-05-03T11:39:10.565Z,15.40
2023-05-03T11:41:39.361Z,15.70
2023-05-03T11:46:47.761Z,16.00
2023-05-03T11:49:20.782Z,16.10
2023-05-03T11:51:51.830Z,16.40
2023-05-03T11:54:26.310Z,16.60
2023-05-03T11:56:59.248Z,16.70
2023-05-03T11:59:38.178Z,16.60
2023-05-03T12:02:13.140Z,16.70
2023-05-03T12:04:45.630Z,16.60
2023-05-03T12:07:19.186Z,16.70
2023-05-03T12:10:00.609Z,16.70
2023-05-03T12:15:07.969Z,16.80
2023-05-03T12:17:40.344Z,16.50
2023-05-03T12:22:56.728Z,16.80
2023-05-03T12:25:28.920Z,17.20
2023-05-03T12:30:35.422Z,17.40
2023-05-03T12:33:05.386Z,17.40
2023-05-03T12:35:34.543Z,17.00
2023-05-03T12:38:04.617Z,17.00
2023-05-03T12:40:35.584Z,16.80
2023-05-03T12:43:04.857Z,16.80
2023-05-03T12:45:34.389Z,16.70
2023-05-03T12:48:06.566Z,16.80
2023-05-03T12:50:38.733Z,16.90
2023-05-03T12:53:09.838Z,17.30
2023-05-03T12:55:43.100Z,17.50
2023-05-03T12:58:43.248Z,17.80
2023-05-03T13:01:37.245Z,18.10
2023-05-03T13:04:08.867Z,18.30
2023-05-03T13:06:43.820Z,18.40
2023-05-03T13:09:19.194Z,18.50
2023-05-03T13:11:50.253Z,18.40
2023-05-03T13:14:18.831Z,18.40
2023-05-03T13:16:47.862Z,18.60
2023-05-03T13:19:18.452Z,18.90
2023-05-03T13:21:48.841Z,19.90
2023-05-03T13:24:19.492Z,20.50
2023-05-03T13:26:47.602Z,21.40
2023-05-03T13:29:16.176Z,21.40
2023-05-03T13:31:45.528Z,20.90
2023-05-03T13:34:14.523Z,20.60
2023-05-03T13:36:44.232Z,20.10
2023-05-03T13:39:12.387Z,19.60
2023-05-03T13:41:42.433Z,19.20
2023-05-03T13:44:11.693Z,19.30
2023-05-03T13:46:41.610Z,19.50
2023-05-03T13:49:14.610Z,19.40
2023-05-03T13:51:44.510Z,19.40
2023-05-03T13:54:12.566Z,19.30
2023-05-03T13:56:42.991Z,19.40
2023-05-03T13:59:15.170Z,19.70
2023-05-03T14:01:43.992Z,20.50
2023-05-03T14:04:13.310Z,21.10
2023-05-03T14:06:43.476Z,21.60
2023-05-03T14:09:11.867Z,22.30
2023-05-03T14:11:42.271Z,23.10
2023-05-03T14:14:10.388Z,23.50
2023-05-03T14:16:41.489Z,23.90
2023-05-03T14:19:11.807Z,23.70
2023-05-03T14:21:43.473Z,22.70
2023-05-03T14:24:16.491Z,22.50
2023-05-03T14:26:45.501Z,22.80
2023-05-03T14:29:13.589Z,23.20
2023-05-03T14:32:07.512Z,23.60
2023-05-03T14:34:35.678Z,24.30
2023-05-03T14:37:04.432Z,24.80
2023-05-03T14:39:35.490Z,25.20
2023-05-03T14:42:04.172Z,25.90
2023-05-03T14:44:32.549Z,26.00
2023-05-03T14:47:01.134Z,26.10
2023-05-03T14:49:30.508Z,26.60
2023-05-03T14:51:59.086Z,26.70
2023-05-03T14:54:32.333Z,27.60
2023-05-03T14:57:04.330Z,27.70
2023-05-03T14:59:33.917Z,27.20
2023-05-03T15:02:02.180Z,27.20
2023-05-03T15:04:37.018Z,25.90
2023-05-03T15:07:07.516Z,25.40
2023-05-03T15:09:35.794Z,26.10
2023-05-03T15:12:06.502Z,26.60
2023-05-03T15:14:35.299Z,26.50
2023-05-03T15:17:03.613Z,26.70
2023-05-03T15:19:32.409Z,26.50
2023-05-03T15:22:00.553Z,26.40
2023-05-03T15:24:29.538Z,27.20
2023-05-03T15:26:57.643Z,26.90
2023-05-03T15:29:27.536Z,27.00
2023-05-03T15:31:55.682Z,26.70
2023-05-03T15:34:23.723Z,26.50
2023-05-03T15:36:53.548Z,26.70
2023-05-03T15:39:21.666Z,26.30
2023-05-03T15:41:50.373Z,26.90
2023-05-03T15:44:21.551Z,26.20
2023-05-03T15:46:51.257Z,25.80
2023-05-03T15:49:20.513Z,25.80
2023-05-03T15:51:50.561Z,25.80
2023-05-03T15:54:18.837Z,25.50
2023-05-03T15:56:50.714Z,25.40
2023-05-03T15:59:21.000Z,25.30
2023-05-03T16:01:51.295Z,25.40
2023-05-03T16:04:19.445Z,24.90
2023-05-03T16:06:47.533Z,24.60
2023-05-03T16:09:19.006Z,24.90
2023-05-03T16:11:49.523Z,24.50
2023-05-03T16:14:17.811Z,24.30
2023-05-03T16:16:47.075Z,24.20
2023-05-03T16:19:23.863Z,23.90
2023-05-03T16:21:52.008Z,23.60
2023-05-03T16:24:20.360Z,23.70
2023-05-03T16:26:52.805Z,23.60
2023-05-03T16:29:23.631Z,23.40
2023-05-03T16:31:52.595Z,22.90
2023-05-03T16:34:22.608Z,22.70
2023-05-03T16:36:54.238Z,22.50
2023-05-03T16:39:23.618Z,22.00
2023-05-03T16:41:52.497Z,21.50
2023-05-03T16:44:22.467Z,21.10
2023-05-03T16:46:50.623Z,20.80
2023-05-03T16:49:22.194Z,20.30
2023-05-03T16:51:51.744Z,20.00
2023-05-03T16:54:21.317Z,19.80
2023-05-03T16:56:49.427Z,19.40
2023-05-03T16:59:17.540Z,19.20
2023-05-03T17:01:45.909Z,18.90
2023-05-03T17:04:17.605Z,18.70
2023-05-03T17:06:48.488Z,18.50
2023-05-03T17:09:18.221Z,18.20
2023-05-03T17:11:47.124Z,18.00
2023-05-03T17:14:15.390Z,17.70
2023-05-03T17:16:46.796Z,17.60
2023-05-03T17:19:18.175Z,17.40
2023-05-03T17:21:46.429Z,17.10
2023-05-03T17:24:14.591Z,16.90
2023-05-03T17:26:44.029Z,16.90
2023-05-03T17:29:13.531Z,16.70
2023-05-03T17:31:41.900Z,16.70
2023-05-03T17:34:10.671Z,16.50
2023-05-03T17:36:38.820Z,16.40
2023-05-03T17:39:07.023Z,16.30
2023-05-03T17:41:38.624Z,16.20
2023-05-03T17:44:08.121Z,16.00
2023-05-03T17:46:38.386Z,16.00
2023-05-03T17:49:07.029Z,15.80
2023-05-03T17:51:35.262Z,15.80
2023-05-03T17:54:03.611Z,15.60
2023-05-03T17:56:31.725Z,15.50
2023-05-03T17:59:00.212Z,15.40
2023-05-03T18:01:31.814Z,15.30
2023-05-03T18:04:00.787Z,15.10
2023-05-03T18:06:29.321Z,15.00
2023-05-03T18:08:57.451Z,14.90
2023-05-03T18:11:25.597Z,14.80
2023-05-03T18:13:53.700Z,14.80
2023-05-03T18:16:22.071Z,14.70
2023-05-03T18:18:52.965Z,14.60
2023-05-03T18:21:22.186Z,14.50
2023-05-03T18:23:50.351Z,14.40
2023-05-03T18:26:18.478Z,14.30
2023-05-03T18:28:46.605Z,14.20
2023-05-03T18:31:14.759Z,14.00
2023-05-03T18:33:42.994Z,13.90
2023-05-03T18:36:15.513Z,13.80
2023-05-03T18:38:44.304Z,13.80
2023-05-03T18:41:14.387Z,13.70
2023-05-03T18:43:43.336Z,13.60
2023-05-03T18:46:18.692Z,13.50
2023-05-03T18:48:47.727Z,13.40
2023-05-03T18:51:17.676Z,13.20
2023-05-03T18:53:45.809Z,13.20
2023-05-03T18:56:14.445Z,13.20
2023-05-03T18:58:42.667Z,13.10
2023-05-03T19:01:11.439Z,13.20
2023-05-03T19:03:39.691Z,13.30
2023-05-03T19:06:08.341Z,13.30
2023-05-03T19:08:38.201Z,13.50
2023-05-03T19:11:10.108Z,13.50
2023-05-03T19:13:39.523Z,13.40
2023-05-03T19:16:07.926Z,13.30
2023-05-03T19:18:37.185Z,13.10
2023-05-03T19:21:05.968Z,13.10
2023-05-03T19:23:34.059Z,13.00
2023-05-03T19:26:03.702Z,12.90
2023-05-03T19:28:34.163Z,12.90
2023-05-03T19:31:04.939Z,12.90
2023-05-03T19:33:33.921Z,12.80
2023-05-03T19:36:06.376Z,12.80
2023-05-03T19:38:36.153Z,12.80
2023-05-03T19:41:08.303Z,12.70
2023-05-03T19:43:36.649Z,12.60
2023-05-03T19:46:04.787Z,12.50
2023-05-03T19:48:33.228Z,12.50
2023-05-03T19:51:04.628Z,12.40
2023-05-03T19:53:32.782Z,12.40
2023-05-03T19:56:04.719Z,12.50
2023-05-03T19:58:34.214Z,12.40
2023-05-03T20:01:02.654Z,12.30
2023-05-03T20:03:34.706Z,12.20
2023-05-03T20:06:03.021Z,12.00
2023-05-03T20:08:32.732Z,12.20
2023-05-03T20:11:00.904Z,12.20
2023-05-03T20:13:30.337Z,12.20
2023-05-03T20:16:01.037Z,12.20
2023-05-03T20:18:29.142Z,12.00
2023-05-03T20:20:57.724Z,11.80
2023-05-03T20:23:26.826Z,11.70
2023-05-03T20:25:55.683Z,11.70
2023-05-03T20:28:24.725Z,11.70
2023-05-03T20:30:52.990Z,11.60
2023-05-03T20:33:26.329Z,11.50
2023-05-03T20:35:54.412Z,11.50
2023-05-03T20:38:23.679Z,11.30
2023-05-03T20:40:52.741Z,11.30
2023-05-03T20:43:24.262Z,11.30
2023-05-03T20:45:54.283Z,11.30
2023-05-03T20:48:22.801Z,11.20
2023-05-03T20:50:53.708Z,11.20
2023-05-03T20:53:21.872Z,11.20
2023-05-03T20:55:56.541Z,11.10
2023-05-03T20:58:24.751Z,11.00
2023-05-03T21:00:57.548Z,11.00
2023-05-03T21:03:27.638Z,10.80
2023-05-03T21:05:57.613Z,10.80
2023-05-03T21:08:26.704Z,10.80
2023-05-03T21:10:55.814Z,10.70
2023-05-03T21:13:23.923Z,10.60
2023-05-03T21:15:56.723Z,10.50
2023-05-03T21:18:25.018Z,10.50
2023-05-03T21:20:54.824Z,10.50
2023-05-03T21:23:24.403Z,10.40
2023-05-03T21:25:58.277Z,10.40
2023-05-03T21:28:26.750Z,10.40
2023-05-03T21:30:55.602Z,10.50
2023-05-03T21:33:24.185Z,10.40
2023-05-03T21:35:52.267Z,10.40
2023-05-03T21:38:48.219Z,10.40
2023-05-03T21:41:20.136Z,10.40
2023-05-03T21:43:50.487Z,10.30
2023-05-03T21:46:18.785Z,10.30
2023-05-03T21:48:47.033Z,10.30
2023-05-03T21:51:21.328Z,10.20
2023-05-03T21:53:50.939Z,10.20
2023-05-03T21:56:19.748Z,10.20
2023-05-03T21:58:48.752Z,10.10
2023-05-03T22:01:19.484Z,10.10
2023-05-03T22:03:49.551Z,10.00
2023-05-03T22:06:17.907Z,10.00
2023-05-03T22:08:46.645Z,10.00
2023-05-03T22:11:17.766Z,10.00
2023-05-03T22:14:03.169Z,9.90
2023-05-03T22:16:34.822Z,9.90
2023-05-03T22:19:03.499Z,9.90
2023-05-03T22:21:32.774Z,9.90
2023-05-03T22:24:00.862Z,9.90
2023-05-03T22:26:34.834Z,9.80
2023-05-03T22:29:02.935Z,9.80
2023-05-03T22:31:31.788Z,9.80
2023-05-03T22:34:00.101Z,9.80
2023-05-03T22:36:28.567Z,9.70
2023-05-03T22:39:01.760Z,9.60
2023-05-03T22:41:32.128Z,9.60
2023-05-03T22:44:00.423Z,9.50
2023-05-03T22:46:29.240Z,9.50
2023-05-03T22:48:57.471Z,9.50
2023-05-03T22:51:30.872Z,9.50
2023-05-03T22:53:59.077Z,9.40
2023-05-03T22:56:27.776Z,9.40
2023-05-03T22:58:57.805Z,9.30
2023-05-03T23:01:26.953Z,9.20
2023-05-03T23:03:55.892Z,9.20
2023-05-03T23:06:25.777Z,9.20
2023-05-03T23:08:53.915Z,9.10
2023-05-03T23:11:23.804Z,9.10
2023-05-03T23:13:52.018Z,9.00
2023-05-03T23:16:21.549Z,9.00
2023-05-03T23:18:54.221Z,8.90
2023-05-03T23:21:23.796Z,8.90
2023-05-03T23:23:52.813Z,8.90
2023-05-03T23:26:20.824Z,8.80
2023-05-03T23:28:53.304Z,8.80
2023-05-03T23:31:23.864Z,8.80
2023-05-03T23:33:52.513Z,8.70
2023-05-03T23:36:20.554Z,8.70
2023-05-03T23:38:51.205Z,8.70
2023-05-03T23:41:22.860Z,8.60
2023-05-03T23:43:51.098Z,8.60
2023-05-03T23:46:19.863Z,8.60
2023-05-03T23:48:49.372Z,8.60
2023-05-03T23:51:17.716Z,8.50
2023-05-03T23:53:49.157Z,8.50
2023-05-03T23:56:17.248Z,8.60
2023-05-03T23:58:45.815Z,8.70
